Latest Coastal Weather Observations for Low Head

IDV60701

Issued at 3:25 am EDT Saturday 1 November 2014 (issued every 10 minutes, with the page automatically refreshed every 10 minutes)

About coastal observations | Map of coastal stations | Coastal observations for VIC | Marine services | Other Formats
Station Details ID: 091293 Name: LOW HEAD Lat: -41.05 Lon: 146.79 Height: 3.0 m
Data from the previous 72 hours. | See also: Recent months at Low Head
Date/Time
EDT
Temp

°C
Wind Pressure Rain
since 9am
mm
Weather Cloud Vis
km
Sea
Height
m
Swell
Dir
 
Speed
knots
Gust
knots
hPa Trend Height
m
Period
s
Dir
01/03:00am 14.6 WSW 12 15 993.1 - 0.2 - - - - - - -
01/02:30am 14.5 W 12 16 993.6 - 0.2 - - - - - - -
01/02:00am 13.9 S 6 7 993.3 - 0.2 - - - - - - -
01/01:30am 13.9 SSE 7 9 992.8 - 0.2 - - - - - - -
01/01:00am 13.9 SE 6 7 993.7 - 0.2 - - - - - - -
01/12:30am 14.6 E 7 10 994.6 - 0.2 - - - - - - -
01/12:00am 14.7 ESE 6 9 995.5 - 0.2 - - - - - - -
 
Date/Time
EDT
Temp

°C
Wind Pressure Rain
since 9am
mm
Weather Cloud Vis
km
Sea
Height
m
Swell
Dir
 
Speed
knots
Gust
knots
hPa Trend Height
m
Period
s
Dir
31/11:30pm 14.8 SW 8 12 996.5 - 0.2 - - - - - - -
31/11:00pm 14.7 S 5 7 996.2 - 0.2 - - - - - - -
31/10:30pm 15.3 E 9 13 996.5 - 0.2 - - - - - - -
31/10:00pm 15.3 E 10 16 997.0 - 0.2 - - - - - - -
31/09:30pm 14.8 ENE 9 13 997.7 - 0.2 - - - - - - -
31/09:00pm 14.8 ENE 9 11 998.4 - 0.2 - - - - - - -
31/08:30pm 14.4 E 10 13 998.8 - 0.2 - - - - - - -
31/08:00pm 14.4 ENE 15 17 999.2 - 0.2 - - - - - - -
31/07:30pm 14.3 ENE 15 17 999.9 - 0.2 - - - - - - -
31/07:00pm 14.3 ENE 15 17 1000.0 - 0.2 - - - - - - -
31/06:30pm 14.5 ENE 15 16 1000.4 - 0.2 - - - - - - -
31/06:00pm 14.6 NE 11 14 1001.1 - 0.2 - - - - - - -
31/05:30pm 14.7 ENE 9 11 1001.4 - 0.2 - - - - - - -
31/05:00pm 14.6 ENE 9 11 1002.2 - 0.2 - - - - - - -
31/04:30pm 15.0 ENE 7 8 1002.9 - 0.2 - - - - - - -
31/04:00pm 14.9 NE 6 7 1003.8 - 0.2 - - - - - - -
31/03:30pm 14.9 NNE 5 6 1004.2 - 0.2 - - - - - - -
31/03:00pm 15.1 NNE 6 7 1004.4 F 0.2 Fine Cloudy 20 1 1.0 3 NW
31/02:30pm 14.5 N 8 9 1004.7 - 0.2 - - - - - - -
31/02:00pm 14.4 N 10 11 1005.2 - 0.2 - - - - - - -
31/01:30pm 14.6 N 11 12 1005.5 - 0.2 - - - - - - -
31/01:00pm 14.1 NNW 11 13 1006.2 - 0.2 - - - - - - -
31/12:30pm 14.0 NNW 12 14 1006.7 - 0.2 - - - - - - -
31/12:00pm 13.7 NNW 12 14 1006.9 - 0.2 - - - - - - -
31/11:30am 13.7 NW 9 11 1007.2 - 0.2 - - - - - - -
31/11:00am 13.3 NW 11 13 1007.7 - 0.2 - - - - - - -
31/10:30am 13.5 NW 13 15 1008.0 - 0.0 - - - - - - -
31/10:00am 13.5 NW 13 15 1008.1 - 0.0 - - - - - - -
31/09:30am 13.5 NNW 12 14 1007.9 - 0.0 - - - - - - -
31/09:00am 13.5 NW 12 14 1008.3 F 0.2 Rain Cloudy 10 1 1.0 3 NW
31/08:30am 13.5 NW 13 15 1008.5 - 0.0 - - - - - - -
31/08:00am 13.6 NW 13 14 1008.6 - 0.0 - - - - - - -
31/07:30am 12.9 WNW 12 14 1008.3 - 0.0 - - - - - - -
31/07:00am 12.5 WNW 13 15 1008.7 - 0.0 - - - - - - -
31/06:30am 11.6 WNW 21 25 1008.7 - 0.0 - - - - - - -
31/06:00am 12.4 WNW 15 17 1008.8 F 0.0 Fine Cloudy 10 1 1.0 3 NW
31/05:30am 12.3 W 19 22 1008.4 - 0.0 - - - - - - -
31/05:00am 12.8 WNW 12 14 1008.4 - 0.0 - - - - - - -
31/04:30am 12.9 WNW 14 16 1008.6 - 0.0 - - - - - - -
31/04:00am 12.7 WNW 14 17 1008.9 - 0.0 - - - - - - -
31/03:30am 12.8 WNW 16 19 1009.3 - 0.0 - - - - - - -
31/03:00am 12.8 WNW 16 19 1009.4 - 0.0 - - - - - - -
31/02:30am 12.8 W 18 21 1009.6 - 0.0 - - - - - - -
31/02:00am 12.9 WNW 19 21 1009.7 - 0.0 - - - - - - -
31/01:30am 12.8 WNW 18 21 1010.1 - 0.0 - - - - - - -
31/01:00am 12.8 WNW 21 23 1010.3 - 0.0 - - - - - - -
31/12:30am 13.0 WNW 18 22 1010.6 - 0.0 - - - - - - -
31/12:00am 12.9 WNW 17 19 1010.7 - 0.0 - - - - - - -
 
Date/Time
EDT
Temp

°C
Wind Pressure Rain
since 9am
mm
Weather Cloud Vis
km
Sea
Height
m
Swell
Dir
 
Speed
knots
Gust
knots
hPa Trend Height
m
Period
s
Dir
30/11:30pm 13.2 WNW 16 18 1010.6 - 0.0 - - - - - - -
30/11:00pm 13.4 WNW 16 19 1010.9 - 0.0 - - - - - - -
30/10:30pm 13.6 WNW 17 20 1011.1 - 0.0 - - - - - - -
30/10:00pm 13.7 WNW 16 19 1011.1 - 0.0 - - - - - - -
30/09:30pm 13.8 WNW 18 22 1010.8 - 0.0 - - - - - - -
30/09:00pm 13.8 WNW 18 21 1010.5 - 0.0 - - - - - - -
30/08:30pm 14.0 NW 17 20 1010.3 - 0.0 - - - - - - -
30/08:00pm 14.0 WNW 20 24 1010.1 - 0.0 - - - - - - -
30/07:30pm 13.9 WNW 19 22 1010.0 - 0.0 - - - - - - -
30/07:00pm 14.2 WNW 20 24 1009.8 - 0.0 - - - - - - -
30/06:30pm 14.5 WNW 23 27 1009.5 - 0.0 - - - - - - -
30/06:00pm 14.8 WNW 22 26 1009.4 - 0.0 - - - - - - -
30/05:30pm 15.3 WNW 23 27 1009.3 - 0.0 - - - - - - -
30/05:00pm 15.5 WNW 23 28 1009.1 - 0.0 - - - - - - -
30/04:30pm 15.5 NW 24 29 1009.2 - 0.0 - - - - - - -
30/04:00pm 15.5 WNW 25 29 1009.1 - 0.0 - - - - - - -
30/03:30pm 15.9 WNW 24 28 1009.1 - 0.0 - - - - - - -
30/03:00pm 15.7 NW 24 29 1008.8 R 0.0 Fine Mostly cloudy 25 2 1.5 3 NW
30/02:30pm 16.1 WNW 23 27 1009.5 - 0.0 - - - - - - -
30/02:00pm 16.1 NW 22 27 1009.3 - 0.0 - - - - - - -
30/01:30pm 15.9 NW 23 27 1009.5 - 0.0 - - - - - - -
30/01:00pm 15.7 WNW 22 26 1009.6 - 0.0 - - - - - - -
30/12:30pm 16.0 WNW 19 23 1009.9 - 0.0 - - - - - - -
30/12:00pm 15.6 NW 20 24 1009.9 - 0.0 - - - - - - -
30/11:30am 15.2 WNW 20 25 1010.3 - 0.0 - - - - - - -
30/11:00am 15.0 WNW 21 25 1010.6 - 0.0 - - - - - - -
30/10:30am 14.6 WNW 20 24 1010.7 - 0.0 - - - - - - -
30/10:00am 14.5 WNW 19 23 1010.8 - 0.0 - - - - - - -
30/09:30am 14.1 WNW 20 24 1010.7 - 0.0 - - - - - - -
30/09:00am 13.8 WNW 19 23 1010.6 F 0.0 Fine Partly cloudy 25 1 1.0 3 NW
30/08:30am 13.3 WNW 20 23 1010.6 - 0.0 - - - - - - -
30/08:00am 13.3 WNW 19 24 1010.4 - 0.0 - - - - - - -
30/07:30am 13.2 WNW 19 23 1010.4 - 0.0 - - - - - - -
30/07:00am 12.8 W 19 24 1010.1 - 0.0 - - - - - - -
30/06:30am 12.3 WNW 20 24 1009.8 - 0.0 - - - - - - -
30/06:00am 12.2 WNW 19 23 1009.5 S 0.0 Fine Partly cloudy 25 1 1.0 3 NW
30/05:30am 12.3 WNW 21 24 1009.7 - 0.0 - - - - - - -
30/05:00am 12.4 WNW 20 24 1009.3 - 0.0 - - - - - - -
30/04:30am 12.3 WNW 20 23 1009.8 - 0.0 - - - - - - -
30/04:00am 12.4 WNW 21 23 1009.9 - 0.0 - - - - - - -
30/03:30am 12.6 WNW 20 23 1009.7 - 0.0 - - - - - - -
30/03:00am 12.6 WNW 22 26 1009.6 - 0.0 - - - - - - -
30/02:30am 13.0 W 24 28 1009.8 - 0.0 - - - - - - -
30/02:00am 12.9 WNW 23 27 1009.8 - 0.0 - - - - - - -
30/01:30am 12.9 W 19 23 1010.2 - 0.0 - - - - - - -
30/01:00am 13.0 WNW 19 24 1010.5 - 0.0 - - - - - - -
30/12:30am 13.2 WNW 20 23 1010.8 - 0.0 - - - - - - -
30/12:00am 13.1 WNW 17 21 1010.9 - 0.0 - - - - - - -
 
Date/Time
EDT
Temp

°C
Wind Pressure Rain
since 9am
mm
Weather Cloud Vis
km
Sea
Height
m
Swell
Dir
 
Speed
knots
Gust
knots
hPa Trend Height
m
Period
s
Dir
29/11:30pm 13.2 WNW 19 23 1011.2 - 0.0 - - - - - - -
29/11:00pm 13.2 WNW 20 23 1011.2 - 0.0 - - - - - - -
29/10:30pm 13.1 WNW 19 25 1011.2 - 0.0 - - - - - - -
29/10:00pm 13.3 WNW 25 30 1011.3 - 0.0 - - - - - - -
29/09:30pm 13.3 WNW 23 27 1011.2 - 0.0 - - - - - - -
29/09:00pm 13.3 WNW 21 26 1011.1 - 0.0 - - - - - - -
29/08:30pm 13.3 WNW 24 30 1010.9 - 0.0 - - - - - - -
29/08:00pm 13.6 WNW 22 26 1010.9 - 0.0 - - - - - - -
29/07:30pm 13.8 WNW 24 29 1010.9 - 0.0 - - - - - - -
29/07:00pm 14.2 WNW 24 30 1010.6 - 0.0 - - - - - - -
29/06:30pm 14.4 WNW 23 27 1010.6 - 0.0 - - - - - - -
29/06:00pm 14.3 WNW 25 29 1010.4 - 0.0 - - - - - - -
29/05:30pm 14.3 WNW 29 34 1010.5 - 0.0 - - - - - - -
29/05:00pm 14.5 WNW 29 36 1010.6 - 0.0 - - - - - - -
29/04:30pm 14.8 WNW 27 31 1010.8 - 0.0 - - - - - - -
29/04:00pm 14.9 WNW 27 33 1011.0 - 0.0 - - - - - - -
29/03:30pm 15.0 WNW 26 31 1011.4 - 0.0 - - - - - - -
29/03:00pm 15.2 NW 23 30 1011.6 F 0.0 Fine Mostly clear 25 1 1.0 3 NW
29/02:30pm 14.9 WNW 26 29 1012.0 - 0.0 - - - - - - -
29/02:00pm 15.1 WNW 24 28 1012.4 - 0.0 - - - - - - -
29/01:30pm 14.7 WNW 23 29 1012.6 - 0.0 - - - - - - -
29/01:00pm 15.1 WNW 23 27 1012.8 - 0.0 - - - - - - -
29/12:30pm 15.0 WNW 21 25 1012.8 - 0.0 - - - - - - -
29/12:00pm 14.5 WNW 21 25 1013.1 - 0.0 - - - - - - -
29/11:30am 14.5 W 19 24 1013.5 - 0.0 - - - - - - -
29/11:00am 14.0 W 20 23 1013.6 - 0.0 - - - - - - -
29/10:30am 13.7 W 21 24 1013.6 - 0.0 - - - - - - -
29/10:00am 13.0 W 20 24 1013.6 - 0.0 - - - - - - -
29/09:30am 12.7 W 19 22 1013.8 - 0.0 - - - - - - -
29/09:00am 12.7 W 19 23 1013.7 R 0.0 Fine Mostly cloudy 20 1 1.0 3 NW
29/08:30am 12.3 W 22 25 1013.6 - 0.0 - - - - - - -
29/08:00am 12.2 W 20 25 1013.4 - 0.0 - - - - - - -
29/07:30am 11.4 W 20 24 1013.2 - 0.0 - - - - - - -
29/07:00am 11.2 W 21 27 1013.2 - 0.0 - - - - - - -
29/06:30am 11.0 W 20 23 1012.8 - 0.0 - - - - - - -
29/06:00am 11.3 W 21 26 1012.7 R 0.0 Fine Partly cloudy 25 1 1.5 3 NW
29/05:30am 11.1 W 20 24 1012.2 - 0.0 - - - - - - -
29/05:00am 10.8 W 18 21 1012.0 - 0.0 - - - - - - -
29/04:30am 10.8 W 20 25 1011.2 - 0.0 - - - - - - -
29/04:00am 11.0 W 25 29 1010.6 - 0.0 - - - - - - -
29/03:30am 10.9 W 21 25 1010.9 - 0.0 - - - - - - -

Other Formats:

Comma delimited format used in spreadsheet applications
http://www.bom.gov.au/fwo/IDV60701/IDV60701.95964.axf

JavaScript Object Notation format (JSON) in row-major order
http://www.bom.gov.au/fwo/IDV60701/IDV60701.95964.json